sensor_id;sensor_type;location;lat;lon;timestamp;temperature;humidity
11320;DHT22;5715;48.234;14.320;2023-05-16T00:01:45;9.50;99.90
11320;DHT22;5715;48.234;14.320;2023-05-16T00:04:35;9.50;99.90
11320;DHT22;5715;48.234;14.320;2023-05-16T00:07:23;9.60;99.90
11320;DHT22;5715;48.234;14.320;2023-05-16T00:10:11;9.60;99.90
11320;DHT22;5715;48.234;14.320;2023-05-16T00:12:58;9.60;99.90
11320;DHT22;5715;48.234;14.320;2023-05-16T00:15:48;9.60;99.90
11320;DHT22;5715;48.234;14.320;2023-05-16T00:18:35;9.60;99.90
11320;DHT22;5715;48.234;14.320;2023-05-16T00:21:23;9.70;99.90
11320;DHT22;5715;48.234;14.320;2023-05-16T00:24:11;9.70;99.90
11320;DHT22;5715;48.234;14.320;2023-05-16T00:26:58;9.80;99.90
11320;DHT22;5715;48.234;14.320;2023-05-16T00:29:46;9.70;99.90
11320;DHT22;5715;48.234;14.320;2023-05-16T00:32:35;9.70;99.90
11320;DHT22;5715;48.234;14.320;2023-05-16T00:35:22;9.70;99.90
11320;DHT22;5715;48.234;14.320;2023-05-16T00:38:10;9.70;99.90
11320;DHT22;5715;48.234;14.320;2023-05-16T00:40:58;9.60;99.90
11320;DHT22;5715;48.234;14.320;2023-05-16T00:43:45;9.60;99.90
11320;DHT22;5715;48.234;14.320;2023-05-16T00:46:33;9.50;99.90
11320;DHT22;5715;48.234;14.320;2023-05-16T00:49:21;9.50;99.90
11320;DHT22;5715;48.234;14.320;2023-05-16T00:52:08;9.50;99.90
11320;DHT22;5715;48.234;14.320;2023-05-16T00:54:56;9.50;99.90
11320;DHT22;5715;48.234;14.320;2023-05-16T00:57:44;9.50;99.90
11320;DHT22;5715;48.234;14.320;2023-05-16T01:00:33;9.40;99.90
11320;DHT22;5715;48.234;14.320;2023-05-16T01:03:20;9.40;99.90
11320;DHT22;5715;48.234;14.320;2023-05-16T01:06:08;9.40;99.90
11320;DHT22;5715;48.234;14.320;2023-05-16T01:08:57;9.30;99.90
11320;DHT22;5715;48.234;14.320;2023-05-16T01:18:05;9.20;99.90
11320;DHT22;5715;48.234;14.320;2023-05-16T01:21:08;9.20;99.90
11320;DHT22;5715;48.234;14.320;2023-05-16T01:24:30;9.10;99.90
11320;DHT22;5715;48.234;14.320;2023-05-16T01:27:45;9.20;99.90
11320;DHT22;5715;48.234;14.320;2023-05-16T01:30:39;9.10;99.90
11320;DHT22;5715;48.234;14.320;2023-05-16T01:33:27;9.00;99.90
11320;DHT22;5715;48.234;14.320;2023-05-16T01:36:41;9.00;99.90
11320;DHT22;5715;48.234;14.320;2023-05-16T01:39:44;9.00;99.90
11320;DHT22;5715;48.234;14.320;2023-05-16T01:42:44;9.00;99.90
11320;DHT22;5715;48.234;14.320;2023-05-16T01:45:40;8.90;99.90
11320;DHT22;5715;48.234;14.320;2023-05-16T01:48:42;8.90;99.90
11320;DHT22;5715;48.234;14.320;2023-05-16T01:51:38;8.80;99.90
11320;DHT22;5715;48.234;14.320;2023-05-16T01:54:31;8.80;99.90
11320;DHT22;5715;48.234;14.320;2023-05-16T01:57:24;8.80;99.90
11320;DHT22;5715;48.234;14.320;2023-05-16T02:00:13;8.80;99.90
11320;DHT22;5715;48.234;14.320;2023-05-16T02:03:01;8.80;99.90
11320;DHT22;5715;48.234;14.320;2023-05-16T02:05:49;8.80;99.90
11320;DHT22;5715;48.234;14.320;2023-05-16T02:08:37;8.70;99.90
11320;DHT22;5715;48.234;14.320;2023-05-16T02:11:24;8.80;99.90
11320;DHT22;5715;48.234;14.320;2023-05-16T02:14:13;8.80;99.90
11320;DHT22;5715;48.234;14.320;2023-05-16T02:17:00;8.80;99.90
11320;DHT22;5715;48.234;14.320;2023-05-16T02:19:48;8.80;99.90
11320;DHT22;5715;48.234;14.320;2023-05-16T02:22:36;8.80;99.90
11320;DHT22;5715;48.234;14.320;2023-05-16T02:25:25;8.80;99.90
11320;DHT22;5715;48.234;14.320;2023-05-16T02:28:13;8.90;99.90
11320;DHT22;5715;48.234;14.320;2023-05-16T02:31:00;8.90;99.90
11320;DHT22;5715;48.234;14.320;2023-05-16T02:33:48;8.90;99.90
11320;DHT22;5715;48.234;14.320;2023-05-16T02:36:36;8.90;99.90
11320;DHT22;5715;48.234;14.320;2023-05-16T02:39:23;8.90;99.90
11320;DHT22;5715;48.234;14.320;2023-05-16T02:42:11;8.90;99.90
11320;DHT22;5715;48.234;14.320;2023-05-16T02:44:58;9.00;99.90
11320;DHT22;5715;48.234;14.320;2023-05-16T02:47:46;9.00;99.90
11320;DHT22;5715;48.234;14.320;2023-05-16T02:50:33;9.00;99.90
11320;DHT22;5715;48.234;14.320;2023-05-16T02:53:21;8.90;99.90
11320;DHT22;5715;48.234;14.320;2023-05-16T02:56:09;8.90;99.90
11320;DHT22;5715;48.234;14.320;2023-05-16T02:58:56;8.90;99.90
11320;DHT22;5715;48.234;14.320;2023-05-16T03:01:44;8.90;99.90
11320;DHT22;5715;48.234;14.320;2023-05-16T03:04:32;9.00;99.90
11320;DHT22;5715;48.234;14.320;2023-05-16T03:07:20;9.00;99.90
11320;DHT22;5715;48.234;14.320;2023-05-16T03:10:08;9.00;99.90
11320;DHT22;5715;48.234;14.320;2023-05-16T03:12:55;9.00;99.90
11320;DHT22;5715;48.234;14.320;2023-05-16T03:15:44;9.10;99.90
11320;DHT22;5715;48.234;14.320;2023-05-16T03:18:32;9.10;99.90
11320;DHT22;5715;48.234;14.320;2023-05-16T03:21:20;9.20;99.90
11320;DHT22;5715;48.234;14.320;2023-05-16T03:24:09;9.20;99.90
11320;DHT22;5715;48.234;14.320;2023-05-16T03:26:57;9.20;99.90
11320;DHT22;5715;48.234;14.320;2023-05-16T03:29:46;9.20;99.90
11320;DHT22;5715;48.234;14.320;2023-05-16T03:32:34;9.20;99.90
11320;DHT22;5715;48.234;14.320;2023-05-16T03:35:21;9.30;99.90
11320;DHT22;5715;48.234;14.320;2023-05-16T03:38:11;9.30;99.90
11320;DHT22;5715;48.234;14.320;2023-05-16T03:40:58;9.40;99.90
11320;DHT22;5715;48.234;14.320;2023-05-16T03:43:46;9.40;99.90
11320;DHT22;5715;48.234;14.320;2023-05-16T03:46:35;9.40;99.90
11320;DHT22;5715;48.234;14.320;2023-05-16T03:49:25;9.40;99.90
11320;DHT22;5715;48.234;14.320;2023-05-16T03:52:16;9.40;99.90
11320;DHT22;5715;48.234;14.320;2023-05-16T03:55:04;9.50;99.90
11320;DHT22;5715;48.234;14.320;2023-05-16T03:57:52;9.50;99.90
11320;DHT22;5715;48.234;14.320;2023-05-16T04:00:39;9.50;99.90
11320;DHT22;5715;48.234;14.320;2023-05-16T04:03:27;9.60;99.90
11320;DHT22;5715;48.234;14.320;2023-05-16T04:06:16;9.60;99.90
11320;DHT22;5715;48.234;14.320;2023-05-16T04:09:04;9.60;99.90
11320;DHT22;5715;48.234;14.320;2023-05-16T04:11:52;9.60;99.90
11320;DHT22;5715;48.234;14.320;2023-05-16T04:14:42;9.60;99.90
11320;DHT22;5715;48.234;14.320;2023-05-16T04:17:30;9.70;99.90
11320;DHT22;5715;48.234;14.320;2023-05-16T04:20:18;9.70;99.90
11320;DHT22;5715;48.234;14.320;2023-05-16T04:23:05;9.70;99.90
11320;DHT22;5715;48.234;14.320;2023-05-16T04:25:53;9.80;99.90
11320;DHT22;5715;48.234;14.320;2023-05-16T04:28:42;9.90;99.90
11320;DHT22;5715;48.234;14.320;2023-05-16T04:31:30;10.00;99.90
11320;DHT22;5715;48.234;14.320;2023-05-16T04:34:18;10.00;99.90
11320;DHT22;5715;48.234;14.320;2023-05-16T04:37:06;10.10;99.90
11320;DHT22;5715;48.234;14.320;2023-05-16T04:39:55;10.00;99.90
11320;DHT22;5715;48.234;14.320;2023-05-16T04:42:42;10.00;99.90
11320;DHT22;5715;48.234;14.320;2023-05-16T04:45:30;10.10;99.90
11320;DHT22;5715;48.234;14.320;2023-05-16T04:48:17;10.20;99.90
11320;DHT22;5715;48.234;14.320;2023-05-16T04:51:05;10.30;99.90
11320;DHT22;5715;48.234;14.320;2023-05-16T04:53:52;10.30;99.90
11320;DHT22;5715;48.234;14.320;2023-05-16T04:56:41;10.40;99.90
11320;DHT22;5715;48.234;14.320;2023-05-16T04:59:28;10.40;99.90
11320;DHT22;5715;48.234;14.320;2023-05-16T05:02:16;10.50;99.90
11320;DHT22;5715;48.234;14.320;2023-05-16T05:05:04;10.50;99.90
11320;DHT22;5715;48.234;14.320;2023-05-16T05:07:53;10.60;99.90
11320;DHT22;5715;48.234;14.320;2023-05-16T05:10:40;10.60;99.90
11320;DHT22;5715;48.234;14.320;2023-05-16T05:13:28;10.60;99.90
11320;DHT22;5715;48.234;14.320;2023-05-16T05:16:16;10.80;99.90
11320;DHT22;5715;48.234;14.320;2023-05-16T05:19:03;10.90;99.90
11320;DHT22;5715;48.234;14.320;2023-05-16T05:21:51;10.90;99.90
11320;DHT22;5715;48.234;14.320;2023-05-16T05:24:39;10.90;99.90
11320;DHT22;5715;48.234;14.320;2023-05-16T05:27:26;10.90;99.90
11320;DHT22;5715;48.234;14.320;2023-05-16T05:30:14;10.80;99.90
11320;DHT22;5715;48.234;14.320;2023-05-16T05:33:02;10.80;99.90
11320;DHT22;5715;48.234;14.320;2023-05-16T05:35:50;10.90;99.90
11320;DHT22;5715;48.234;14.320;2023-05-16T05:38:40;10.90;99.90
11320;DHT22;5715;48.234;14.320;2023-05-16T05:41:27;10.90;99.90
11320;DHT22;5715;48.234;14.320;2023-05-16T05:44:15;11.00;99.90
11320;DHT22;5715;48.234;14.320;2023-05-16T05:47:04;10.90;99.90
11320;DHT22;5715;48.234;14.320;2023-05-16T05:49:52;10.90;99.90
11320;DHT22;5715;48.234;14.320;2023-05-16T05:52:39;11.00;99.90
11320;DHT22;5715;48.234;14.320;2023-05-16T05:55:27;11.00;99.90
11320;DHT22;5715;48.234;14.320;2023-05-16T05:58:15;11.00;99.90
11320;DHT22;5715;48.234;14.320;2023-05-16T06:01:04;11.10;99.90
11320;DHT22;5715;48.234;14.320;2023-05-16T06:03:52;11.10;99.90
11320;DHT22;5715;48.234;14.320;2023-05-16T06:06:39;11.00;99.90
11320;DHT22;5715;48.234;14.320;2023-05-16T06:09:27;11.00;99.90
11320;DHT22;5715;48.234;14.320;2023-05-16T06:12:14;11.10;99.90
11320;DHT22;5715;48.234;14.320;2023-05-16T06:15:03;11.20;99.90
11320;DHT22;5715;48.234;14.320;2023-05-16T06:17:51;11.30;99.90
11320;DHT22;5715;48.234;14.320;2023-05-16T06:20:39;11.30;99.90
11320;DHT22;5715;48.234;14.320;2023-05-16T06:23:27;11.20;99.90
11320;DHT22;5715;48.234;14.320;2023-05-16T06:26:14;11.30;99.90
11320;DHT22;5715;48.234;14.320;2023-05-16T06:29:01;11.30;99.90
11320;DHT22;5715;48.234;14.320;2023-05-16T06:31:49;11.50;99.90
11320;DHT22;5715;48.234;14.320;2023-05-16T06:34:37;11.50;99.90
11320;DHT22;5715;48.234;14.320;2023-05-16T06:37:25;11.60;99.90
11320;DHT22;5715;48.234;14.320;2023-05-16T06:40:13;11.70;99.90
11320;DHT22;5715;48.234;14.320;2023-05-16T06:43:00;11.80;99.90
11320;DHT22;5715;48.234;14.320;2023-05-16T06:45:48;11.70;99.90
11320;DHT22;5715;48.234;14.320;2023-05-16T06:48:36;11.70;99.90
11320;DHT22;5715;48.234;14.320;2023-05-16T06:51:23;11.80;99.90
11320;DHT22;5715;48.234;14.320;2023-05-16T06:54:12;12.00;99.90
11320;DHT22;5715;48.234;14.320;2023-05-16T06:56:59;12.00;99.90
11320;DHT22;5715;48.234;14.320;2023-05-16T06:59:47;11.90;99.90
11320;DHT22;5715;48.234;14.320;2023-05-16T07:02:34;12.00;99.90
11320;DHT22;5715;48.234;14.320;2023-05-16T07:05:22;12.10;99.90
11320;DHT22;5715;48.234;14.320;2023-05-16T07:08:10;12.20;99.90
11320;DHT22;5715;48.234;14.320;2023-05-16T07:10:58;12.00;99.90
11320;DHT22;5715;48.234;14.320;2023-05-16T07:13:45;11.90;99.90
11320;DHT22;5715;48.234;14.320;2023-05-16T07:16:33;12.00;99.90
11320;DHT22;5715;48.234;14.320;2023-05-16T07:19:21;12.10;99.90
11320;DHT22;5715;48.234;14.320;2023-05-16T07:22:09;12.30;99.90
11320;DHT22;5715;48.234;14.320;2023-05-16T07:24:58;12.30;99.90
11320;DHT22;5715;48.234;14.320;2023-05-16T07:27:47;12.20;99.90
11320;DHT22;5715;48.234;14.320;2023-05-16T07:30:35;12.40;99.90
11320;DHT22;5715;48.234;14.320;2023-05-16T07:33:23;12.50;99.90
11320;DHT22;5715;48.234;14.320;2023-05-16T07:36:11;12.60;99.90
11320;DHT22;5715;48.234;14.320;2023-05-16T07:39:03;12.60;99.90
11320;DHT22;5715;48.234;14.320;2023-05-16T07:41:51;12.80;99.90
11320;DHT22;5715;48.234;14.320;2023-05-16T07:44:38;12.90;99.90
11320;DHT22;5715;48.234;14.320;2023-05-16T07:47:26;13.00;99.90
11320;DHT22;5715;48.234;14.320;2023-05-16T07:50:15;13.20;99.90
11320;DHT22;5715;48.234;14.320;2023-05-16T07:53:02;13.30;99.90
11320;DHT22;5715;48.234;14.320;2023-05-16T07:55:50;13.50;99.90
11320;DHT22;5715;48.234;14.320;2023-05-16T07:58:38;13.30;99.90
11320;DHT22;5715;48.234;14.320;2023-05-16T08:01:26;13.20;99.90
11320;DHT22;5715;48.234;14.320;2023-05-16T08:04:13;13.30;99.90
11320;DHT22;5715;48.234;14.320;2023-05-16T08:07:01;13.40;99.90
11320;DHT22;5715;48.234;14.320;2023-05-16T08:09:49;13.50;99.90
11320;DHT22;5715;48.234;14.320;2023-05-16T08:12:37;13.60;99.90
11320;DHT22;5715;48.234;14.320;2023-05-16T08:15:26;13.70;99.90
11320;DHT22;5715;48.234;14.320;2023-05-16T08:18:15;13.70;99.90
11320;DHT22;5715;48.234;14.320;2023-05-16T08:21:04;13.70;99.90
11320;DHT22;5715;48.234;14.320;2023-05-16T08:23:52;13.80;99.90
11320;DHT22;5715;48.234;14.320;2023-05-16T08:26:40;13.80;99.90
11320;DHT22;5715;48.234;14.320;2023-05-16T08:29:28;13.90;99.90
11320;DHT22;5715;48.234;14.320;2023-05-16T08:32:16;13.90;99.90
11320;DHT22;5715;48.234;14.320;2023-05-16T08:35:04;14.00;99.90
11320;DHT22;5715;48.234;14.320;2023-05-16T08:37:52;14.10;99.90
11320;DHT22;5715;48.234;14.320;2023-05-16T08:40:41;14.00;99.90
11320;DHT22;5715;48.234;14.320;2023-05-16T08:43:29;14.10;99.90
11320;DHT22;5715;48.234;14.320;2023-05-16T08:46:21;14.10;99.90
11320;DHT22;5715;48.234;14.320;2023-05-16T08:49:10;14.00;99.90
11320;DHT22;5715;48.234;14.320;2023-05-16T08:52:00;14.00;99.90
11320;DHT22;5715;48.234;14.320;2023-05-16T08:54:49;14.00;99.90
11320;DHT22;5715;48.234;14.320;2023-05-16T08:57:57;14.10;99.90
11320;DHT22;5715;48.234;14.320;2023-05-16T09:00:46;13.90;99.90
11320;DHT22;5715;48.234;14.320;2023-05-16T09:03:38;13.80;99.90
11320;DHT22;5715;48.234;14.320;2023-05-16T09:06:27;13.80;99.90
11320;DHT22;5715;48.234;14.320;2023-05-16T09:09:14;13.50;99.90
11320;DHT22;5715;48.234;14.320;2023-05-16T09:12:02;13.40;99.90
11320;DHT22;5715;48.234;14.320;2023-05-16T09:14:50;13.40;99.90
11320;DHT22;5715;48.234;14.320;2023-05-16T09:17:43;13.40;99.90
11320;DHT22;5715;48.234;14.320;2023-05-16T09:20:33;13.20;99.90
11320;DHT22;5715;48.234;14.320;2023-05-16T09:23:23;13.30;99.90
11320;DHT22;5715;48.234;14.320;2023-05-16T09:26:11;13.20;99.90
11320;DHT22;5715;48.234;14.320;2023-05-16T09:28:59;13.40;99.90
11320;DHT22;5715;48.234;14.320;2023-05-16T09:31:48;13.60;99.90
11320;DHT22;5715;48.234;14.320;2023-05-16T09:34:47;13.90;99.90
11320;DHT22;5715;48.234;14.320;2023-05-16T09:37:35;14.30;99.90
11320;DHT22;5715;48.234;14.320;2023-05-16T09:40:23;14.50;99.90
11320;DHT22;5715;48.234;14.320;2023-05-16T09:43:14;14.70;99.90
11320;DHT22;5715;48.234;14.320;2023-05-16T09:46:03;15.00;99.90
11320;DHT22;5715;48.234;14.320;2023-05-16T09:48:51;15.20;99.90
11320;DHT22;5715;48.234;14.320;2023-05-16T09:51:40;15.10;99.90
11320;DHT22;5715;48.234;14.320;2023-05-16T09:54:34;15.30;99.90
11320;DHT22;5715;48.234;14.320;2023-05-16T09:57:21;15.50;99.90
11320;DHT22;5715;48.234;14.320;2023-05-16T10:00:13;15.60;99.90
11320;DHT22;5715;48.234;14.320;2023-05-16T10:03:01;15.70;99.90
11320;DHT22;5715;48.234;14.320;2023-05-16T10:05:55;15.60;99.90
11320;DHT22;5715;48.234;14.320;2023-05-16T10:08:44;15.70;99.90
11320;DHT22;5715;48.234;14.320;2023-05-16T10:11:32;15.50;99.90
11320;DHT22;5715;48.234;14.320;2023-05-16T10:14:21;15.30;99.90
11320;DHT22;5715;48.234;14.320;2023-05-16T10:17:11;15.20;99.90
11320;DHT22;5715;48.234;14.320;2023-05-16T10:20:06;15.20;99.90
11320;DHT22;5715;48.234;14.320;2023-05-16T10:22:57;15.20;99.90
11320;DHT22;5715;48.234;14.320;2023-05-16T10:25:47;15.10;99.90
11320;DHT22;5715;48.234;14.320;2023-05-16T10:28:36;15.00;99.90
11320;DHT22;5715;48.234;14.320;2023-05-16T10:31:25;14.90;99.90
11320;DHT22;5715;48.234;14.320;2023-05-16T10:34:14;14.80;99.90
11320;DHT22;5715;48.234;14.320;2023-05-16T10:37:04;14.70;99.90
11320;DHT22;5715;48.234;14.320;2023-05-16T10:40:00;14.60;99.90
11320;DHT22;5715;48.234;14.320;2023-05-16T10:43:01;14.60;99.90
11320;DHT22;5715;48.234;14.320;2023-05-16T10:45:58;14.60;99.90
11320;DHT22;5715;48.234;14.320;2023-05-16T10:48:50;14.60;99.90
11320;DHT22;5715;48.234;14.320;2023-05-16T10:51:41;14.60;99.90
11320;DHT22;5715;48.234;14.320;2023-05-16T10:54:39;14.70;99.90
11320;DHT22;5715;48.234;14.320;2023-05-16T10:57:32;14.70;99.90
11320;DHT22;5715;48.234;14.320;2023-05-16T11:00:23;14.70;99.90
11320;DHT22;5715;48.234;14.320;2023-05-16T11:03:21;14.70;99.90
11320;DHT22;5715;48.234;14.320;2023-05-16T11:06:11;14.70;99.90
11320;DHT22;5715;48.234;14.320;2023-05-16T11:12:01;14.60;99.90
11320;DHT22;5715;48.234;14.320;2023-05-16T11:14:52;14.60;99.90
11320;DHT22;5715;48.234;14.320;2023-05-16T11:17:42;14.60;99.90
11320;DHT22;5715;48.234;14.320;2023-05-16T11:20:34;14.50;99.90
11320;DHT22;5715;48.234;14.320;2023-05-16T11:23:24;14.50;99.90
11320;DHT22;5715;48.234;14.320;2023-05-16T11:26:12;14.40;99.90
11320;DHT22;5715;48.234;14.320;2023-05-16T11:29:00;14.30;99.90
11320;DHT22;5715;48.234;14.320;2023-05-16T11:31:51;14.30;99.90
11320;DHT22;5715;48.234;14.320;2023-05-16T11:34:39;14.20;99.90
11320;DHT22;5715;48.234;14.320;2023-05-16T11:37:28;14.20;99.90
11320;DHT22;5715;48.234;14.320;2023-05-16T11:40:16;14.20;99.90
11320;DHT22;5715;48.234;14.320;2023-05-16T11:43:04;14.20;99.90
11320;DHT22;5715;48.234;14.320;2023-05-16T11:45:53;14.20;99.90
11320;DHT22;5715;48.234;14.320;2023-05-16T11:48:42;14.10;99.90
11320;DHT22;5715;48.234;14.320;2023-05-16T11:51:32;14.00;99.90
11320;DHT22;5715;48.234;14.320;2023-05-16T11:54:21;14.00;99.90
11320;DHT22;5715;48.234;14.320;2023-05-16T11:57:08;13.90;99.90
11320;DHT22;5715;48.234;14.320;2023-05-16T12:00:02;13.90;99.90
11320;DHT22;5715;48.234;14.320;2023-05-16T12:02:59;13.90;99.90
11320;DHT22;5715;48.234;14.320;2023-05-16T12:05:53;13.90;99.90
11320;DHT22;5715;48.234;14.320;2023-05-16T12:08:49;13.90;99.90
11320;DHT22;5715;48.234;14.320;2023-05-16T12:11:42;13.90;99.90
11320;DHT22;5715;48.234;14.320;2023-05-16T12:14:30;14.00;99.90
11320;DHT22;5715;48.234;14.320;2023-05-16T12:17:18;14.10;99.90
11320;DHT22;5715;48.234;14.320;2023-05-16T12:20:09;14.10;99.90
11320;DHT22;5715;48.234;14.320;2023-05-16T12:23:00;14.00;99.90
11320;DHT22;5715;48.234;14.320;2023-05-16T12:25:48;14.00;99.90
11320;DHT22;5715;48.234;14.320;2023-05-16T12:28:36;14.00;99.90
11320;DHT22;5715;48.234;14.320;2023-05-16T12:31:26;14.00;99.90
11320;DHT22;5715;48.234;14.320;2023-05-16T12:34:19;14.00;99.90
11320;DHT22;5715;48.234;14.320;2023-05-16T12:37:07;14.00;99.90
11320;DHT22;5715;48.234;14.320;2023-05-16T12:40:01;14.10;99.90
11320;DHT22;5715;48.234;14.320;2023-05-16T12:42:50;14.10;99.90
11320;DHT22;5715;48.234;14.320;2023-05-16T12:45:39;14.20;99.90
11320;DHT22;5715;48.234;14.320;2023-05-16T12:48:32;14.20;99.90
11320;DHT22;5715;48.234;14.320;2023-05-16T12:51:21;14.30;99.90
11320;DHT22;5715;48.234;14.320;2023-05-16T12:54:10;14.30;99.90
11320;DHT22;5715;48.234;14.320;2023-05-16T12:56:58;14.30;99.90
11320;DHT22;5715;48.234;14.320;2023-05-16T12:59:45;14.40;99.90
11320;DHT22;5715;48.234;14.320;2023-05-16T13:02:33;14.60;99.90
11320;DHT22;5715;48.234;14.320;2023-05-16T13:05:21;14.50;99.90
11320;DHT22;5715;48.234;14.320;2023-05-16T13:08:09;14.70;99.90
11320;DHT22;5715;48.234;14.320;2023-05-16T13:10:57;14.90;99.90
11320;DHT22;5715;48.234;14.320;2023-05-16T13:13:44;14.90;99.90
11320;DHT22;5715;48.234;14.320;2023-05-16T13:16:32;15.00;99.90
11320;DHT22;5715;48.234;14.320;2023-05-16T13:19:20;15.00;99.90
11320;DHT22;5715;48.234;14.320;2023-05-16T13:22:09;14.90;99.90
11320;DHT22;5715;48.234;14.320;2023-05-16T13:24:57;14.80;99.90
11320;DHT22;5715;48.234;14.320;2023-05-16T13:27:44;14.80;99.90
11320;DHT22;5715;48.234;14.320;2023-05-16T13:30:32;14.80;99.90
11320;DHT22;5715;48.234;14.320;2023-05-16T13:33:20;14.90;99.90
11320;DHT22;5715;48.234;14.320;2023-05-16T13:36:08;15.20;99.90
11320;DHT22;5715;48.234;14.320;2023-05-16T13:38:56;15.30;99.90
11320;DHT22;5715;48.234;14.320;2023-05-16T13:41:44;15.40;99.90
11320;DHT22;5715;48.234;14.320;2023-05-16T13:44:34;15.20;99.90
11320;DHT22;5715;48.234;14.320;2023-05-16T13:47:22;15.10;99.90
11320;DHT22;5715;48.234;14.320;2023-05-16T13:50:10;14.80;99.90
11320;DHT22;5715;48.234;14.320;2023-05-16T13:52:58;14.70;99.90
11320;DHT22;5715;48.234;14.320;2023-05-16T13:55:45;14.60;99.90
11320;DHT22;5715;48.234;14.320;2023-05-16T13:58:33;14.60;99.90
11320;DHT22;5715;48.234;14.320;2023-05-16T14:01:31;14.60;99.90
11320;DHT22;5715;48.234;14.320;2023-05-16T14:04:20;14.50;99.90
11320;DHT22;5715;48.234;14.320;2023-05-16T14:07:08;14.40;99.90
11320;DHT22;5715;48.234;14.320;2023-05-16T14:09:55;14.10;99.90
11320;DHT22;5715;48.234;14.320;2023-05-16T14:12:43;14.00;99.90
11320;DHT22;5715;48.234;14.320;2023-05-16T14:15:31;14.00;99.90
11320;DHT22;5715;48.234;14.320;2023-05-16T14:18:19;13.90;99.90
11320;DHT22;5715;48.234;14.320;2023-05-16T14:21:06;13.90;99.90
11320;DHT22;5715;48.234;14.320;2023-05-16T14:23:54;13.90;99.90
11320;DHT22;5715;48.234;14.320;2023-05-16T14:26:42;14.00;99.90
11320;DHT22;5715;48.234;14.320;2023-05-16T14:29:29;14.00;99.90
11320;DHT22;5715;48.234;14.320;2023-05-16T14:32:17;13.80;99.90
11320;DHT22;5715;48.234;14.320;2023-05-16T14:35:05;13.80;99.90
11320;DHT22;5715;48.234;14.320;2023-05-16T14:37:53;13.70;99.90
11320;DHT22;5715;48.234;14.320;2023-05-16T14:40:41;13.50;99.90
11320;DHT22;5715;48.234;14.320;2023-05-16T14:43:28;13.50;99.90
11320;DHT22;5715;48.234;14.320;2023-05-16T14:46:17;13.50;99.90
11320;DHT22;5715;48.234;14.320;2023-05-16T14:49:04;13.50;99.90
11320;DHT22;5715;48.234;14.320;2023-05-16T14:51:52;13.50;99.90
11320;DHT22;5715;48.234;14.320;2023-05-16T14:54:40;13.50;99.90
11320;DHT22;5715;48.234;14.320;2023-05-16T14:57:27;13.50;99.90
11320;DHT22;5715;48.234;14.320;2023-05-16T15:00:16;13.40;99.90
11320;DHT22;5715;48.234;14.320;2023-05-16T15:03:03;13.30;99.90
11320;DHT22;5715;48.234;14.320;2023-05-16T15:05:51;13.30;99.90
11320;DHT22;5715;48.234;14.320;2023-05-16T15:08:39;13.20;99.90
11320;DHT22;5715;48.234;14.320;2023-05-16T15:11:28;13.20;99.90
11320;DHT22;5715;48.234;14.320;2023-05-16T15:14:16;13.30;99.90
11320;DHT22;5715;48.234;14.320;2023-05-16T15:17:05;13.40;99.90
11320;DHT22;5715;48.234;14.320;2023-05-16T15:19:55;13.50;99.90
11320;DHT22;5715;48.234;14.320;2023-05-16T15:22:43;13.50;99.90
11320;DHT22;5715;48.234;14.320;2023-05-16T15:25:31;13.50;99.90
11320;DHT22;5715;48.234;14.320;2023-05-16T15:28:19;13.60;99.90
11320;DHT22;5715;48.234;14.320;2023-05-16T15:31:08;13.70;99.90
11320;DHT22;5715;48.234;14.320;2023-05-16T15:33:56;13.80;99.90
11320;DHT22;5715;48.234;14.320;2023-05-16T15:36:44;13.80;99.90
11320;DHT22;5715;48.234;14.320;2023-05-16T15:39:32;13.80;99.90
11320;DHT22;5715;48.234;14.320;2023-05-16T15:42:19;13.70;99.90
11320;DHT22;5715;48.234;14.320;2023-05-16T15:45:08;13.60;99.90
11320;DHT22;5715;48.234;14.320;2023-05-16T15:47:57;13.50;99.90
11320;DHT22;5715;48.234;14.320;2023-05-16T15:50:45;13.40;99.90
11320;DHT22;5715;48.234;14.320;2023-05-16T15:53:32;13.40;99.90
11320;DHT22;5715;48.234;14.320;2023-05-16T15:56:20;13.30;99.90
11320;DHT22;5715;48.234;14.320;2023-05-16T15:59:07;13.30;99.90
11320;DHT22;5715;48.234;14.320;2023-05-16T16:01:55;13.30;99.90
11320;DHT22;5715;48.234;14.320;2023-05-16T16:04:43;13.20;99.90
11320;DHT22;5715;48.234;14.320;2023-05-16T16:07:30;13.20;99.90
11320;DHT22;5715;48.234;14.320;2023-05-16T16:10:18;13.20;99.90
11320;DHT22;5715;48.234;14.320;2023-05-16T16:13:08;13.10;99.90
11320;DHT22;5715;48.234;14.320;2023-05-16T16:15:56;13.10;99.90
11320;DHT22;5715;48.234;14.320;2023-05-16T16:18:44;13.10;99.90
11320;DHT22;5715;48.234;14.320;2023-05-16T16:21:32;13.10;99.90
11320;DHT22;5715;48.234;14.320;2023-05-16T16:24:19;13.10;99.90
11320;DHT22;5715;48.234;14.320;2023-05-16T16:27:07;13.00;99.90
11320;DHT22;5715;48.234;14.320;2023-05-16T16:29:55;13.00;99.90
11320;DHT22;5715;48.234;14.320;2023-05-16T16:32:42;12.90;99.90
11320;DHT22;5715;48.234;14.320;2023-05-16T16:35:30;13.00;99.90
11320;DHT22;5715;48.234;14.320;2023-05-16T16:38:18;13.00;99.90
11320;DHT22;5715;48.234;14.320;2023-05-16T16:41:05;13.00;99.90
11320;DHT22;5715;48.234;14.320;2023-05-16T16:43:53;13.00;99.90
11320;DHT22;5715;48.234;14.320;2023-05-16T16:46:40;13.00;99.90
11320;DHT22;5715;48.234;14.320;2023-05-16T16:49:28;12.90;99.90
11320;DHT22;5715;48.234;14.320;2023-05-16T16:52:17;12.90;99.90
11320;DHT22;5715;48.234;14.320;2023-05-16T16:55:05;12.90;99.90
11320;DHT22;5715;48.234;14.320;2023-05-16T16:57:53;12.90;99.90
11320;DHT22;5715;48.234;14.320;2023-05-16T17:00:41;12.90;99.90
11320;DHT22;5715;48.234;14.320;2023-05-16T17:03:28;12.90;99.90
11320;DHT22;5715;48.234;14.320;2023-05-16T17:06:16;12.90;99.90
11320;DHT22;5715;48.234;14.320;2023-05-16T17:09:04;12.90;99.90
11320;DHT22;5715;48.234;14.320;2023-05-16T17:11:53;12.90;99.90
11320;DHT22;5715;48.234;14.320;2023-05-16T17:14:40;12.90;99.90
11320;DHT22;5715;48.234;14.320;2023-05-16T17:17:28;12.90;99.90
11320;DHT22;5715;48.234;14.320;2023-05-16T17:20:16;12.90;99.90
11320;DHT22;5715;48.234;14.320;2023-05-16T17:23:04;12.80;99.90
11320;DHT22;5715;48.234;14.320;2023-05-16T17:25:51;12.80;99.90
11320;DHT22;5715;48.234;14.320;2023-05-16T17:28:39;12.80;99.90
11320;DHT22;5715;48.234;14.320;2023-05-16T17:31:27;12.80;99.90
11320;DHT22;5715;48.234;14.320;2023-05-16T17:34:14;12.80;99.90
11320;DHT22;5715;48.234;14.320;2023-05-16T17:37:02;12.80;99.90
11320;DHT22;5715;48.234;14.320;2023-05-16T17:39:52;12.80;99.90
11320;DHT22;5715;48.234;14.320;2023-05-16T17:42:40;12.80;99.90
11320;DHT22;5715;48.234;14.320;2023-05-16T17:45:28;12.70;99.90
11320;DHT22;5715;48.234;14.320;2023-05-16T17:48:15;12.70;99.90
11320;DHT22;5715;48.234;14.320;2023-05-16T17:51:03;12.70;99.90
11320;DHT22;5715;48.234;14.320;2023-05-16T17:53:53;12.70;99.90
11320;DHT22;5715;48.234;14.320;2023-05-16T17:56:43;12.60;99.90
11320;DHT22;5715;48.234;14.320;2023-05-16T17:59:31;12.60;99.90
11320;DHT22;5715;48.234;14.320;2023-05-16T18:02:19;12.60;99.90